North Petersburg, New York
Current Conditions -  °F | °C
As of 5:52 AM on Saturday 25 Oct 2014 (Local Time) from KAQW Reporting Station
Overcast Overcast  
Wind Chill: 33°   Ceiling: 1800
Heat Index: 38°   Visibility: 7mi
Dew Point: 38°   Wind: 6mph
Humidity: 100%   Direction: 310°NW
Pressure: 29.83"   Gusts: NA
Location:  42.7192°N, 73.3641°W
Report Text: KAQW 250952Z AUTO 31005KT 7SM OVC018 03/03 A2983 RMK AO2 SLP106 T00330033
Loading
Personal Weather Stations






























Interactive Weather Map
Tropical Storm Tracking
New forecast layout! Learn more

10-Day Weather Forecast

Advertisements
Track Severe Weather on mobile